sensor_id;sensor_type;location;lat;lon;timestamp;temperature;humidity
23371;DHT22;11858;51.056;3.712;2022-07-23T00:01:21;19.10;99.90
23371;DHT22;11858;51.056;3.712;2022-07-23T00:03:48;18.90;99.90
23371;DHT22;11858;51.056;3.712;2022-07-23T00:06:14;19.00;99.90
23371;DHT22;11858;51.056;3.712;2022-07-23T00:08:40;18.90;99.90
23371;DHT22;11858;51.056;3.712;2022-07-23T00:11:06;19.00;99.90
23371;DHT22;11858;51.056;3.712;2022-07-23T00:13:32;19.00;99.90
23371;DHT22;11858;51.056;3.712;2022-07-23T00:15:57;18.90;99.90
23371;DHT22;11858;51.056;3.712;2022-07-23T00:18:23;18.90;99.90
23371;DHT22;11858;51.056;3.712;2022-07-23T00:20:49;18.80;99.90
23371;DHT22;11858;51.056;3.712;2022-07-23T00:23:15;18.80;99.90
23371;DHT22;11858;51.056;3.712;2022-07-23T00:25:41;18.70;99.90
23371;DHT22;11858;51.056;3.712;2022-07-23T00:28:06;18.80;99.90
23371;DHT22;11858;51.056;3.712;2022-07-23T00:30:33;18.80;99.90
23371;DHT22;11858;51.056;3.712;2022-07-23T00:33:01;18.80;99.90
23371;DHT22;11858;51.056;3.712;2022-07-23T00:35:30;18.80;99.90
23371;DHT22;11858;51.056;3.712;2022-07-23T00:37:57;18.70;99.90
23371;DHT22;11858;51.056;3.712;2022-07-23T00:40:23;18.70;99.90
23371;DHT22;11858;51.056;3.712;2022-07-23T00:42:50;18.80;99.90
23371;DHT22;11858;51.056;3.712;2022-07-23T00:45:16;18.70;99.90
23371;DHT22;11858;51.056;3.712;2022-07-23T00:47:42;18.70;99.90
23371;DHT22;11858;51.056;3.712;2022-07-23T00:50:08;18.60;99.90
23371;DHT22;11858;51.056;3.712;2022-07-23T00:52:35;18.70;99.90
23371;DHT22;11858;51.056;3.712;2022-07-23T00:55:02;18.60;99.90
23371;DHT22;11858;51.056;3.712;2022-07-23T00:57:28;18.70;99.90
23371;DHT22;11858;51.056;3.712;2022-07-23T00:59:54;18.50;99.90
23371;DHT22;11858;51.056;3.712;2022-07-23T01:02:20;18.50;99.90
23371;DHT22;11858;51.056;3.712;2022-07-23T01:04:46;18.40;99.90
23371;DHT22;11858;51.056;3.712;2022-07-23T01:07:12;18.50;99.90
23371;DHT22;11858;51.056;3.712;2022-07-23T01:09:38;18.50;99.90
23371;DHT22;11858;51.056;3.712;2022-07-23T01:12:04;18.50;99.90
23371;DHT22;11858;51.056;3.712;2022-07-23T01:14:30;18.40;99.90
23371;DHT22;11858;51.056;3.712;2022-07-23T01:16:57;18.30;99.90
23371;DHT22;11858;51.056;3.712;2022-07-23T01:19:22;18.40;99.90
23371;DHT22;11858;51.056;3.712;2022-07-23T01:21:50;18.50;99.90
23371;DHT22;11858;51.056;3.712;2022-07-23T01:24:17;18.40;99.90
23371;DHT22;11858;51.056;3.712;2022-07-23T01:26:45;18.20;99.90
23371;DHT22;11858;51.056;3.712;2022-07-23T01:29:11;18.20;99.90
23371;DHT22;11858;51.056;3.712;2022-07-23T01:31:38;18.10;99.90
23371;DHT22;11858;51.056;3.712;2022-07-23T01:34:04;18.20;99.90
23371;DHT22;11858;51.056;3.712;2022-07-23T01:36:31;18.20;99.90
23371;DHT22;11858;51.056;3.712;2022-07-23T01:38:58;18.10;99.90
23371;DHT22;11858;51.056;3.712;2022-07-23T01:41:24;18.10;99.90
23371;DHT22;11858;51.056;3.712;2022-07-23T01:43:49;18.20;99.90
23371;DHT22;11858;51.056;3.712;2022-07-23T01:46:15;18.30;99.90
23371;DHT22;11858;51.056;3.712;2022-07-23T01:48:41;18.30;99.90
23371;DHT22;11858;51.056;3.712;2022-07-23T01:51:07;18.20;99.90
23371;DHT22;11858;51.056;3.712;2022-07-23T01:53:33;18.10;99.90
23371;DHT22;11858;51.056;3.712;2022-07-23T01:55:59;18.10;99.90
23371;DHT22;11858;51.056;3.712;2022-07-23T01:58:25;18.00;99.90
23371;DHT22;11858;51.056;3.712;2022-07-23T02:00:52;18.00;99.90
23371;DHT22;11858;51.056;3.712;2022-07-23T02:03:18;18.00;99.90
23371;DHT22;11858;51.056;3.712;2022-07-23T02:05:44;18.00;99.90
23371;DHT22;11858;51.056;3.712;2022-07-23T02:08:09;17.90;99.90
23371;DHT22;11858;51.056;3.712;2022-07-23T02:10:35;17.90;99.90
23371;DHT22;11858;51.056;3.712;2022-07-23T02:13:01;18.00;99.90
23371;DHT22;11858;51.056;3.712;2022-07-23T02:15:27;18.00;99.90
23371;DHT22;11858;51.056;3.712;2022-07-23T02:17:54;17.90;99.90
23371;DHT22;11858;51.056;3.712;2022-07-23T02:20:21;17.90;99.90
23371;DHT22;11858;51.056;3.712;2022-07-23T02:22:47;17.80;99.90
23371;DHT22;11858;51.056;3.712;2022-07-23T02:25:13;17.70;99.90
23371;DHT22;11858;51.056;3.712;2022-07-23T02:27:39;17.70;99.90
23371;DHT22;11858;51.056;3.712;2022-07-23T02:30:06;17.80;99.90
23371;DHT22;11858;51.056;3.712;2022-07-23T02:32:32;17.80;99.90
23371;DHT22;11858;51.056;3.712;2022-07-23T02:34:58;17.90;99.90
23371;DHT22;11858;51.056;3.712;2022-07-23T02:37:24;17.90;99.90
23371;DHT22;11858;51.056;3.712;2022-07-23T02:39:50;17.80;99.90
23371;DHT22;11858;51.056;3.712;2022-07-23T02:42:16;17.70;99.90
23371;DHT22;11858;51.056;3.712;2022-07-23T02:44:41;17.70;99.90
23371;DHT22;11858;51.056;3.712;2022-07-23T02:47:07;17.70;99.90
23371;DHT22;11858;51.056;3.712;2022-07-23T02:49:33;17.80;99.90
23371;DHT22;11858;51.056;3.712;2022-07-23T02:51:59;17.70;99.90
23371;DHT22;11858;51.056;3.712;2022-07-23T02:54:25;17.60;99.90
23371;DHT22;11858;51.056;3.712;2022-07-23T02:56:51;17.70;99.90
23371;DHT22;11858;51.056;3.712;2022-07-23T02:59:17;17.70;99.90
23371;DHT22;11858;51.056;3.712;2022-07-23T03:01:43;17.60;99.90
23371;DHT22;11858;51.056;3.712;2022-07-23T03:04:09;17.60;99.90
23371;DHT22;11858;51.056;3.712;2022-07-23T03:06:35;17.60;99.90
23371;DHT22;11858;51.056;3.712;2022-07-23T03:09:02;17.70;99.90
23371;DHT22;11858;51.056;3.712;2022-07-23T03:11:28;17.70;99.90
23371;DHT22;11858;51.056;3.712;2022-07-23T03:13:54;17.60;99.90
23371;DHT22;11858;51.056;3.712;2022-07-23T03:16:20;17.60;99.90
23371;DHT22;11858;51.056;3.712;2022-07-23T03:18:46;17.60;99.90
23371;DHT22;11858;51.056;3.712;2022-07-23T03:21:12;17.80;99.90
23371;DHT22;11858;51.056;3.712;2022-07-23T03:23:38;17.70;99.90
23371;DHT22;11858;51.056;3.712;2022-07-23T03:26:04;17.50;99.90
23371;DHT22;11858;51.056;3.712;2022-07-23T03:28:30;17.40;99.90
23371;DHT22;11858;51.056;3.712;2022-07-23T03:30:56;17.30;99.90
23371;DHT22;11858;51.056;3.712;2022-07-23T03:33:23;17.30;99.90
23371;DHT22;11858;51.056;3.712;2022-07-23T03:35:49;17.40;99.90
23371;DHT22;11858;51.056;3.712;2022-07-23T03:38:15;17.40;99.90
23371;DHT22;11858;51.056;3.712;2022-07-23T03:40:41;17.50;99.90
23371;DHT22;11858;51.056;3.712;2022-07-23T03:43:07;17.40;99.90
23371;DHT22;11858;51.056;3.712;2022-07-23T03:45:33;17.40;99.90
23371;DHT22;11858;51.056;3.712;2022-07-23T03:47:59;17.40;99.90
23371;DHT22;11858;51.056;3.712;2022-07-23T03:50:25;17.30;99.90
23371;DHT22;11858;51.056;3.712;2022-07-23T03:52:51;17.40;99.90
23371;DHT22;11858;51.056;3.712;2022-07-23T03:55:17;17.40;99.90
23371;DHT22;11858;51.056;3.712;2022-07-23T03:57:44;17.40;99.90
23371;DHT22;11858;51.056;3.712;2022-07-23T04:00:12;17.20;99.90
23371;DHT22;11858;51.056;3.712;2022-07-23T04:02:39;17.20;99.90
23371;DHT22;11858;51.056;3.712;2022-07-23T04:05:05;17.10;99.90
23371;DHT22;11858;51.056;3.712;2022-07-23T04:07:31;17.10;99.90
23371;DHT22;11858;51.056;3.712;2022-07-23T04:09:57;17.10;99.90
23371;DHT22;11858;51.056;3.712;2022-07-23T04:12:24;17.20;99.90
23371;DHT22;11858;51.056;3.712;2022-07-23T04:14:49;17.30;99.90
23371;DHT22;11858;51.056;3.712;2022-07-23T04:17:15;17.10;99.90
23371;DHT22;11858;51.056;3.712;2022-07-23T04:19:42;17.10;99.90
23371;DHT22;11858;51.056;3.712;2022-07-23T04:22:10;16.90;99.90
23371;DHT22;11858;51.056;3.712;2022-07-23T04:24:36;17.00;99.90
23371;DHT22;11858;51.056;3.712;2022-07-23T04:27:03;17.10;99.90
23371;DHT22;11858;51.056;3.712;2022-07-23T04:29:29;17.20;99.90
23371;DHT22;11858;51.056;3.712;2022-07-23T04:31:55;17.20;99.90
23371;DHT22;11858;51.056;3.712;2022-07-23T04:34:21;17.10;99.90
23371;DHT22;11858;51.056;3.712;2022-07-23T04:36:47;17.20;99.90
23371;DHT22;11858;51.056;3.712;2022-07-23T04:39:13;17.20;99.90
23371;DHT22;11858;51.056;3.712;2022-07-23T04:41:39;17.20;99.90
23371;DHT22;11858;51.056;3.712;2022-07-23T04:44:05;17.50;99.90
23371;DHT22;11858;51.056;3.712;2022-07-23T04:46:31;17.50;99.90
23371;DHT22;11858;51.056;3.712;2022-07-23T04:48:57;17.60;99.90
23371;DHT22;11858;51.056;3.712;2022-07-23T04:51:24;17.60;99.90
23371;DHT22;11858;51.056;3.712;2022-07-23T04:53:50;17.70;99.90
23371;DHT22;11858;51.056;3.712;2022-07-23T04:56:16;17.70;99.90
23371;DHT22;11858;51.056;3.712;2022-07-23T04:58:41;17.70;99.90
23371;DHT22;11858;51.056;3.712;2022-07-23T05:01:07;17.60;99.90
23371;DHT22;11858;51.056;3.712;2022-07-23T05:03:33;17.60;99.90
23371;DHT22;11858;51.056;3.712;2022-07-23T05:05:59;17.70;99.90
23371;DHT22;11858;51.056;3.712;2022-07-23T05:08:25;17.70;99.90
23371;DHT22;11858;51.056;3.712;2022-07-23T05:10:51;17.90;99.90
23371;DHT22;11858;51.056;3.712;2022-07-23T05:13:17;18.00;99.90
23371;DHT22;11858;51.056;3.712;2022-07-23T05:15:44;18.00;99.90
23371;DHT22;11858;51.056;3.712;2022-07-23T05:18:10;18.00;99.90
23371;DHT22;11858;51.056;3.712;2022-07-23T05:20:36;18.00;99.90
23371;DHT22;11858;51.056;3.712;2022-07-23T05:23:02;18.10;99.90
23371;DHT22;11858;51.056;3.712;2022-07-23T05:25:28;18.20;99.90
23371;DHT22;11858;51.056;3.712;2022-07-23T05:27:54;18.30;99.90
23371;DHT22;11858;51.056;3.712;2022-07-23T05:30:19;18.40;99.90
23371;DHT22;11858;51.056;3.712;2022-07-23T05:32:46;18.30;99.90
23371;DHT22;11858;51.056;3.712;2022-07-23T05:35:12;18.30;99.90
23371;DHT22;11858;51.056;3.712;2022-07-23T05:37:38;18.50;99.90
23371;DHT22;11858;51.056;3.712;2022-07-23T05:40:06;18.60;99.90
23371;DHT22;11858;51.056;3.712;2022-07-23T05:42:34;18.80;99.90
23371;DHT22;11858;51.056;3.712;2022-07-23T05:44:59;19.00;99.90
23371;DHT22;11858;51.056;3.712;2022-07-23T05:47:25;19.30;99.90
23371;DHT22;11858;51.056;3.712;2022-07-23T05:49:51;19.50;99.90
23371;DHT22;11858;51.056;3.712;2022-07-23T05:52:17;19.60;99.90
23371;DHT22;11858;51.056;3.712;2022-07-23T05:54:43;19.80;99.90
23371;DHT22;11858;51.056;3.712;2022-07-23T05:57:09;20.00;99.90
23371;DHT22;11858;51.056;3.712;2022-07-23T05:59:34;19.90;99.90
23371;DHT22;11858;51.056;3.712;2022-07-23T06:02:00;19.90;99.90
23371;DHT22;11858;51.056;3.712;2022-07-23T06:04:26;20.00;99.90
23371;DHT22;11858;51.056;3.712;2022-07-23T06:06:52;20.00;99.90
23371;DHT22;11858;51.056;3.712;2022-07-23T06:09:17;20.00;99.90
23371;DHT22;11858;51.056;3.712;2022-07-23T06:11:43;20.10;99.90
23371;DHT22;11858;51.056;3.712;2022-07-23T06:14:09;20.20;99.90
23371;DHT22;11858;51.056;3.712;2022-07-23T06:16:35;20.40;99.90
23371;DHT22;11858;51.056;3.712;2022-07-23T06:19:01;20.40;99.90
23371;DHT22;11858;51.056;3.712;2022-07-23T06:21:27;20.50;99.90
23371;DHT22;11858;51.056;3.712;2022-07-23T06:23:52;20.60;99.90
23371;DHT22;11858;51.056;3.712;2022-07-23T06:26:18;20.50;99.90
23371;DHT22;11858;51.056;3.712;2022-07-23T06:28:44;20.50;99.90
23371;DHT22;11858;51.056;3.712;2022-07-23T06:31:10;20.50;99.90
23371;DHT22;11858;51.056;3.712;2022-07-23T06:33:35;20.60;99.90
23371;DHT22;11858;51.056;3.712;2022-07-23T06:36:01;20.70;99.90
23371;DHT22;11858;51.056;3.712;2022-07-23T06:38:27;20.50;99.90
23371;DHT22;11858;51.056;3.712;2022-07-23T06:40:53;20.50;99.90
23371;DHT22;11858;51.056;3.712;2022-07-23T06:43:19;20.40;99.90
23371;DHT22;11858;51.056;3.712;2022-07-23T06:45:44;20.40;99.90
23371;DHT22;11858;51.056;3.712;2022-07-23T06:48:10;20.50;99.90
23371;DHT22;11858;51.056;3.712;2022-07-23T06:50:36;20.60;99.90
23371;DHT22;11858;51.056;3.712;2022-07-23T06:53:02;20.60;99.90
23371;DHT22;11858;51.056;3.712;2022-07-23T06:55:27;20.70;99.90
23371;DHT22;11858;51.056;3.712;2022-07-23T06:57:53;20.50;99.90
23371;DHT22;11858;51.056;3.712;2022-07-23T07:00:19;20.70;99.90
23371;DHT22;11858;51.056;3.712;2022-07-23T07:02:44;20.80;99.90
23371;DHT22;11858;51.056;3.712;2022-07-23T07:05:10;20.80;99.90
23371;DHT22;11858;51.056;3.712;2022-07-23T07:07:36;20.90;99.90
23371;DHT22;11858;51.056;3.712;2022-07-23T07:10:05;21.10;99.90
23371;DHT22;11858;51.056;3.712;2022-07-23T07:12:31;21.30;99.90
23371;DHT22;11858;51.056;3.712;2022-07-23T07:14:57;21.20;99.90
23371;DHT22;11858;51.056;3.712;2022-07-23T07:17:23;21.30;99.90
23371;DHT22;11858;51.056;3.712;2022-07-23T07:19:48;21.60;99.90
23371;DHT22;11858;51.056;3.712;2022-07-23T07:22:14;21.70;99.90
23371;DHT22;11858;51.056;3.712;2022-07-23T07:24:40;22.00;99.90
23371;DHT22;11858;51.056;3.712;2022-07-23T07:27:06;22.10;99.90
23371;DHT22;11858;51.056;3.712;2022-07-23T07:29:31;22.10;99.90
23371;DHT22;11858;51.056;3.712;2022-07-23T07:31:57;21.90;99.90
23371;DHT22;11858;51.056;3.712;2022-07-23T07:34:23;22.00;99.90
23371;DHT22;11858;51.056;3.712;2022-07-23T07:36:49;22.20;99.90
23371;DHT22;11858;51.056;3.712;2022-07-23T07:39:15;22.50;99.90
23371;DHT22;11858;51.056;3.712;2022-07-23T07:41:41;22.60;99.90
23371;DHT22;11858;51.056;3.712;2022-07-23T07:44:07;22.40;99.90
23371;DHT22;11858;51.056;3.712;2022-07-23T07:46:33;22.80;99.90
23371;DHT22;11858;51.056;3.712;2022-07-23T07:48:59;22.90;99.90
23371;DHT22;11858;51.056;3.712;2022-07-23T07:51:25;23.40;99.90
23371;DHT22;11858;51.056;3.712;2022-07-23T07:53:52;23.90;99.90
23371;DHT22;11858;51.056;3.712;2022-07-23T07:56:18;24.30;99.90
23371;DHT22;11858;51.056;3.712;2022-07-23T07:58:43;24.60;99.90
23371;DHT22;11858;51.056;3.712;2022-07-23T08:01:09;25.20;99.90
23371;DHT22;11858;51.056;3.712;2022-07-23T08:03:35;25.70;99.90
23371;DHT22;11858;51.056;3.712;2022-07-23T08:06:01;26.10;99.90
23371;DHT22;11858;51.056;3.712;2022-07-23T08:08:27;26.70;99.90
23371;DHT22;11858;51.056;3.712;2022-07-23T08:10:52;27.10;99.90
23371;DHT22;11858;51.056;3.712;2022-07-23T08:13:18;27.40;99.90
23371;DHT22;11858;51.056;3.712;2022-07-23T08:15:44;27.40;99.90
23371;DHT22;11858;51.056;3.712;2022-07-23T08:18:10;27.60;99.90
23371;DHT22;11858;51.056;3.712;2022-07-23T08:20:36;27.40;99.90
23371;DHT22;11858;51.056;3.712;2022-07-23T08:23:08;27.30;99.90
23371;DHT22;11858;51.056;3.712;2022-07-23T08:25:40;27.70;99.90
23371;DHT22;11858;51.056;3.712;2022-07-23T08:28:09;27.90;99.90
23371;DHT22;11858;51.056;3.712;2022-07-23T08:30:36;28.30;99.90
23371;DHT22;11858;51.056;3.712;2022-07-23T08:33:05;28.70;99.90
23371;DHT22;11858;51.056;3.712;2022-07-23T08:35:36;29.00;99.50
23371;DHT22;11858;51.056;3.712;2022-07-23T08:38:04;29.00;98.40
23371;DHT22;11858;51.056;3.712;2022-07-23T08:40:33;29.00;97.80
23371;DHT22;11858;51.056;3.712;2022-07-23T08:42:59;29.30;96.10
23371;DHT22;11858;51.056;3.712;2022-07-23T08:45:27;29.30;94.70
23371;DHT22;11858;51.056;3.712;2022-07-23T08:47:57;29.20;94.40
23371;DHT22;11858;51.056;3.712;2022-07-23T08:50:26;29.40;93.90
23371;DHT22;11858;51.056;3.712;2022-07-23T08:52:53;28.90;93.80
23371;DHT22;11858;51.056;3.712;2022-07-23T08:55:21;28.40;94.50
23371;DHT22;11858;51.056;3.712;2022-07-23T08:57:52;28.60;94.20
23371;DHT22;11858;51.056;3.712;2022-07-23T09:00:20;29.60;92.30
23371;DHT22;11858;51.056;3.712;2022-07-23T09:02:47;30.40;91.20
23371;DHT22;11858;51.056;3.712;2022-07-23T09:05:14;31.20;90.60
23371;DHT22;11858;51.056;3.712;2022-07-23T09:08:22;32.00;84.20
23371;DHT22;11858;51.056;3.712;2022-07-23T09:10:53;32.90;82.70
23371;DHT22;11858;51.056;3.712;2022-07-23T09:16:13;34.30;73.20
23371;DHT22;11858;51.056;3.712;2022-07-23T09:18:44;35.20;69.70
23371;DHT22;11858;51.056;3.712;2022-07-23T09:23:40;35.90;63.60
23371;DHT22;11858;51.056;3.712;2022-07-23T09:26:36;36.40;62.40
23371;DHT22;11858;51.056;3.712;2022-07-23T09:34:25;38.00;55.50
23371;DHT22;11858;51.056;3.712;2022-07-23T09:36:54;38.10;54.30
23371;DHT22;11858;51.056;3.712;2022-07-23T09:39:29;38.10;53.60
23371;DHT22;11858;51.056;3.712;2022-07-23T09:41:59;37.40;53.70
23371;DHT22;11858;51.056;3.712;2022-07-23T09:44:42;36.80;54.00
23371;DHT22;11858;51.056;3.712;2022-07-23T09:47:08;36.60;54.30
23371;DHT22;11858;51.056;3.712;2022-07-23T09:49:34;36.00;55.20
23371;DHT22;11858;51.056;3.712;2022-07-23T09:52:00;35.90;54.90
23371;DHT22;11858;51.056;3.712;2022-07-23T09:54:38;36.20;54.30
23371;DHT22;11858;51.056;3.712;2022-07-23T09:57:12;36.80;53.90
23371;DHT22;11858;51.056;3.712;2022-07-23T09:59:41;37.00;53.60
23371;DHT22;11858;51.056;3.712;2022-07-23T10:02:10;36.80;53.40
23371;DHT22;11858;51.056;3.712;2022-07-23T10:04:37;37.30;52.90
23371;DHT22;11858;51.056;3.712;2022-07-23T10:07:05;38.10;52.50
23371;DHT22;11858;51.056;3.712;2022-07-23T10:09:37;39.00;51.20
23371;DHT22;11858;51.056;3.712;2022-07-23T10:12:05;40.10;48.90
23371;DHT22;11858;51.056;3.712;2022-07-23T10:14:50;39.20;48.80
23371;DHT22;11858;51.056;3.712;2022-07-23T10:17:17;38.60;49.70
23371;DHT22;11858;51.056;3.712;2022-07-23T10:19:43;39.20;49.00
23371;DHT22;11858;51.056;3.712;2022-07-23T10:22:21;39.30;48.50
23371;DHT22;11858;51.056;3.712;2022-07-23T10:25:21;40.10;48.20
23371;DHT22;11858;51.056;3.712;2022-07-23T10:34:01;40.30;46.20
23371;DHT22;11858;51.056;3.712;2022-07-23T10:36:46;38.80;47.80
23371;DHT22;11858;51.056;3.712;2022-07-23T10:39:27;38.80;48.00
23371;DHT22;11858;51.056;3.712;2022-07-23T10:42:11;37.50;48.70
23371;DHT22;11858;51.056;3.712;2022-07-23T10:44:42;37.50;49.20
23371;DHT22;11858;51.056;3.712;2022-07-23T10:47:09;38.30;48.00
23371;DHT22;11858;51.056;3.712;2022-07-23T10:50:25;39.00;47.40
23371;DHT22;11858;51.056;3.712;2022-07-23T10:53:15;40.00;46.00
23371;DHT22;11858;51.056;3.712;2022-07-23T10:55:52;40.10;45.40
23371;DHT22;11858;51.056;3.712;2022-07-23T10:58:23;39.80;45.70
23371;DHT22;11858;51.056;3.712;2022-07-23T11:03:58;40.10;45.50
23371;DHT22;11858;51.056;3.712;2022-07-23T11:15:07;41.10;42.20
23371;DHT22;11858;51.056;3.712;2022-07-23T11:17:59;41.60;41.40
23371;DHT22;11858;51.056;3.712;2022-07-23T11:20:26;41.30;41.40
23371;DHT22;11858;51.056;3.712;2022-07-23T11:22:55;40.90;42.40
23371;DHT22;11858;51.056;3.712;2022-07-23T11:27:48;41.60;41.70
23371;DHT22;11858;51.056;3.712;2022-07-23T11:33:15;42.20;41.10
23371;DHT22;11858;51.056;3.712;2022-07-23T11:35:45;42.20;40.50
23371;DHT22;11858;51.056;3.712;2022-07-23T11:38:23;42.10;40.80
23371;DHT22;11858;51.056;3.712;2022-07-23T11:40:54;42.40;40.70
23371;DHT22;11858;51.056;3.712;2022-07-23T11:43:22;42.90;40.10
23371;DHT22;11858;51.056;3.712;2022-07-23T11:45:51;43.00;39.40
23371;DHT22;11858;51.056;3.712;2022-07-23T11:48:29;43.60;39.70
23371;DHT22;11858;51.056;3.712;2022-07-23T11:50:57;44.30;39.20
23371;DHT22;11858;51.056;3.712;2022-07-23T11:53:32;44.10;38.70
23371;DHT22;11858;51.056;3.712;2022-07-23T11:56:09;44.60;38.60
23371;DHT22;11858;51.056;3.712;2022-07-23T11:58:36;44.20;38.40
23371;DHT22;11858;51.056;3.712;2022-07-23T12:01:02;44.20;38.70
23371;DHT22;11858;51.056;3.712;2022-07-23T12:03:28;43.90;38.10
23371;DHT22;11858;51.056;3.712;2022-07-23T12:05:58;43.70;38.40
23371;DHT22;11858;51.056;3.712;2022-07-23T12:08:25;44.20;38.80
23371;DHT22;11858;51.056;3.712;2022-07-23T12:10:51;44.50;38.10
23371;DHT22;11858;51.056;3.712;2022-07-23T12:13:19;44.70;37.30
23371;DHT22;11858;51.056;3.712;2022-07-23T12:15:54;44.40;37.80
23371;DHT22;11858;51.056;3.712;2022-07-23T12:18:24;44.40;37.90
23371;DHT22;11858;51.056;3.712;2022-07-23T12:20:55;44.40;37.80
23371;DHT22;11858;51.056;3.712;2022-07-23T12:23:23;44.60;37.50
23371;DHT22;11858;51.056;3.712;2022-07-23T12:25:50;43.80;37.90
23371;DHT22;11858;51.056;3.712;2022-07-23T12:28:20;43.60;38.60
23371;DHT22;11858;51.056;3.712;2022-07-23T12:30:50;43.90;39.00
23371;DHT22;11858;51.056;3.712;2022-07-23T12:33:32;44.60;38.00
23371;DHT22;11858;51.056;3.712;2022-07-23T12:36:00;45.00;37.10
23371;DHT22;11858;51.056;3.712;2022-07-23T12:38:39;44.10;37.70
23371;DHT22;11858;51.056;3.712;2022-07-23T12:41:05;43.80;38.60
23371;DHT22;11858;51.056;3.712;2022-07-23T12:43:33;43.10;38.70
23371;DHT22;11858;51.056;3.712;2022-07-23T12:46:06;42.20;39.60
23371;DHT22;11858;51.056;3.712;2022-07-23T12:48:34;41.70;40.40
23371;DHT22;11858;51.056;3.712;2022-07-23T12:51:12;41.90;40.20
23371;DHT22;11858;51.056;3.712;2022-07-23T12:54:07;42.10;40.50
23371;DHT22;11858;51.056;3.712;2022-07-23T12:56:44;41.70;40.20
23371;DHT22;11858;51.056;3.712;2022-07-23T12:59:13;40.80;41.40
23371;DHT22;11858;51.056;3.712;2022-07-23T13:01:43;40.00;42.20
23371;DHT22;11858;51.056;3.712;2022-07-23T13:04:17;39.20;43.30
23371;DHT22;11858;51.056;3.712;2022-07-23T13:06:48;40.20;43.20
23371;DHT22;11858;51.056;3.712;2022-07-23T13:09:17;41.40;41.90
23371;DHT22;11858;51.056;3.712;2022-07-23T13:11:44;42.10;41.40
23371;DHT22;11858;51.056;3.712;2022-07-23T13:14:12;42.90;40.20
23371;DHT22;11858;51.056;3.712;2022-07-23T13:16:39;43.80;39.80
23371;DHT22;11858;51.056;3.712;2022-07-23T13:19:05;43.60;39.60
23371;DHT22;11858;51.056;3.712;2022-07-23T13:21:32;43.60;39.70
23371;DHT22;11858;51.056;3.712;2022-07-23T13:23:58;43.70;39.10
23371;DHT22;11858;51.056;3.712;2022-07-23T13:26:25;44.20;38.70
23371;DHT22;11858;51.056;3.712;2022-07-23T13:28:51;43.10;39.50
23371;DHT22;11858;51.056;3.712;2022-07-23T13:31:17;42.20;40.50
23371;DHT22;11858;51.056;3.712;2022-07-23T13:33:43;41.60;41.20
23371;DHT22;11858;51.056;3.712;2022-07-23T13:36:09;42.50;40.60
23371;DHT22;11858;51.056;3.712;2022-07-23T13:38:35;43.40;39.80
23371;DHT22;11858;51.056;3.712;2022-07-23T13:41:02;43.40;39.50
23371;DHT22;11858;51.056;3.712;2022-07-23T13:43:29;42.80;39.80
23371;DHT22;11858;51.056;3.712;2022-07-23T13:45:54;42.30;40.50
23371;DHT22;11858;51.056;3.712;2022-07-23T13:48:20;42.50;40.20
23371;DHT22;11858;51.056;3.712;2022-07-23T13:50:48;43.00;39.80
23371;DHT22;11858;51.056;3.712;2022-07-23T13:53:17;42.60;40.40
23371;DHT22;11858;51.056;3.712;2022-07-23T13:55:44;42.10;40.60
23371;DHT22;11858;51.056;3.712;2022-07-23T13:58:11;42.00;41.40
23371;DHT22;11858;51.056;3.712;2022-07-23T14:00:41;41.60;41.00
23371;DHT22;11858;51.056;3.712;2022-07-23T14:03:07;40.10;42.30
23371;DHT22;11858;51.056;3.712;2022-07-23T14:05:33;38.90;44.00
23371;DHT22;11858;51.056;3.712;2022-07-23T14:08:00;38.20;45.10
23371;DHT22;11858;51.056;3.712;2022-07-23T14:10:26;38.30;45.70
23371;DHT22;11858;51.056;3.712;2022-07-23T14:12:52;38.00;45.50
23371;DHT22;11858;51.056;3.712;2022-07-23T14:15:18;37.70;46.20
23371;DHT22;11858;51.056;3.712;2022-07-23T14:17:45;37.50;46.60
23371;DHT22;11858;51.056;3.712;2022-07-23T14:20:15;37.60;46.50
23371;DHT22;11858;51.056;3.712;2022-07-23T14:22:41;37.90;46.60
23371;DHT22;11858;51.056;3.712;2022-07-23T14:25:08;37.90;45.90
23371;DHT22;11858;51.056;3.712;2022-07-23T14:27:34;38.00;46.60
23371;DHT22;11858;51.056;3.712;2022-07-23T14:30:01;37.80;46.30
23371;DHT22;11858;51.056;3.712;2022-07-23T14:32:29;37.70;47.40
23371;DHT22;11858;51.056;3.712;2022-07-23T14:34:55;37.30;47.30
23371;DHT22;11858;51.056;3.712;2022-07-23T14:37:20;37.10;46.60
23371;DHT22;11858;51.056;3.712;2022-07-23T14:39:47;37.30;47.30
23371;DHT22;11858;51.056;3.712;2022-07-23T14:42:14;37.60;46.50
23371;DHT22;11858;51.056;3.712;2022-07-23T14:44:40;37.00;46.90
23371;DHT22;11858;51.056;3.712;2022-07-23T14:47:08;37.20;47.60
23371;DHT22;11858;51.056;3.712;2022-07-23T14:49:34;38.40;46.00
23371;DHT22;11858;51.056;3.712;2022-07-23T14:52:00;39.70;44.60
23371;DHT22;11858;51.056;3.712;2022-07-23T14:54:27;40.20;44.00
23371;DHT22;11858;51.056;3.712;2022-07-23T14:56:58;40.90;43.40
23371;DHT22;11858;51.056;3.712;2022-07-23T14:59:24;40.90;42.70
23371;DHT22;11858;51.056;3.712;2022-07-23T15:01:51;40.00;43.50
23371;DHT22;11858;51.056;3.712;2022-07-23T15:04:18;39.40;44.50
23371;DHT22;11858;51.056;3.712;2022-07-23T15:06:44;39.70;44.00
23371;DHT22;11858;51.056;3.712;2022-07-23T15:09:10;38.90;44.40
23371;DHT22;11858;51.056;3.712;2022-07-23T15:11:36;37.60;46.30
23371;DHT22;11858;51.056;3.712;2022-07-23T15:14:06;37.30;47.00
23371;DHT22;11858;51.056;3.712;2022-07-23T15:16:33;37.80;46.60
23371;DHT22;11858;51.056;3.712;2022-07-23T15:18:59;38.70;45.70
23371;DHT22;11858;51.056;3.712;2022-07-23T15:21:25;39.90;44.90
23371;DHT22;11858;51.056;3.712;2022-07-23T15:23:51;40.90;43.50
23371;DHT22;11858;51.056;3.712;2022-07-23T15:26:18;40.70;43.80
23371;DHT22;11858;51.056;3.712;2022-07-23T15:28:44;40.50;43.90
23371;DHT22;11858;51.056;3.712;2022-07-23T15:31:10;40.10;44.00
23371;DHT22;11858;51.056;3.712;2022-07-23T15:33:36;38.80;45.30
23371;DHT22;11858;51.056;3.712;2022-07-23T15:36:03;39.00;45.70
23371;DHT22;11858;51.056;3.712;2022-07-23T15:38:29;39.40;44.90
23371;DHT22;11858;51.056;3.712;2022-07-23T15:40:56;38.80;45.50
23371;DHT22;11858;51.056;3.712;2022-07-23T15:43:25;37.20;47.10
23371;DHT22;11858;51.056;3.712;2022-07-23T15:45:52;36.50;48.90
23371;DHT22;11858;51.056;3.712;2022-07-23T15:48:19;36.70;48.70
23371;DHT22;11858;51.056;3.712;2022-07-23T15:50:46;36.40;49.30
23371;DHT22;11858;51.056;3.712;2022-07-23T15:53:12;36.60;49.10
23371;DHT22;11858;51.056;3.712;2022-07-23T15:55:38;37.20;48.80
23371;DHT22;11858;51.056;3.712;2022-07-23T15:58:05;37.90;47.50
23371;DHT22;11858;51.056;3.712;2022-07-23T16:00:31;38.50;46.80
23371;DHT22;11858;51.056;3.712;2022-07-23T16:02:56;38.60;46.30
23371;DHT22;11858;51.056;3.712;2022-07-23T16:05:22;37.40;47.10
23371;DHT22;11858;51.056;3.712;2022-07-23T16:07:48;36.20;48.80